Kabul, Afghanistan
Current Conditions -  °F | °C
As of 9:50 AM on Sunday 26 Oct 2014 (Local Time) from OAKB Reporting Station
Few Clouds Few Clouds  
Wind Chill: 66°   Ceiling: Unl
Heat Index: 66°   Visibility: 6mi
Dew Point: 41°   Wind: 3mph
Humidity: 40%   Direction: NA
Pressure: 30.33"   Gusts: NA
Location:  34.53°N, 69.17°E
Report Text: OAKB 260550Z VRB03KT 9999 FEW060 19/05 Q1027 NOSIG RMK BLU BLU
Loading
Personal Weather Stations






























Interactive Weather Map
Tropical Storm Tracking
New forecast layout! Learn more

10-Day Weather Forecast

Advertisements
Track Severe Weather on mobile